sensor_id;sensor_type;location;lat;lon;timestamp;pressure;altitude;pressure_sealevel;temperature;humidity
57248;BME280;55809;46.618;10.764;2023-04-26T00:00:18;64767.38;;;-145.41;100.00
57248;BME280;55809;46.618;10.764;2023-04-26T00:02:46;64767.38;;;-145.41;100.00
57248;BME280;55809;46.618;10.764;2023-04-26T00:05:14;64767.38;;;-145.41;100.00
57248;BME280;55809;46.618;10.764;2023-04-26T00:07:42;64767.38;;;-145.41;100.00
57248;BME280;55809;46.618;10.764;2023-04-26T00:10:09;64767.38;;;-145.41;100.00
57248;BME280;55809;46.618;10.764;2023-04-26T00:12:36;64767.38;;;-145.41;100.00
57248;BME280;55809;46.618;10.764;2023-04-26T00:15:06;64767.38;;;-145.41;100.00
57248;BME280;55809;46.618;10.764;2023-04-26T00:17:34;64767.38;;;-145.41;100.00
57248;BME280;55809;46.618;10.764;2023-04-26T00:20:03;64767.38;;;-145.41;100.00
57248;BME280;55809;46.618;10.764;2023-04-26T00:22:32;64767.38;;;-145.41;100.00
57248;BME280;55809;46.618;10.764;2023-04-26T00:24:59;64767.38;;;-145.41;100.00
57248;BME280;55809;46.618;10.764;2023-04-26T00:27:26;64767.38;;;-145.41;100.00
57248;BME280;55809;46.618;10.764;2023-04-26T00:29:53;64767.38;;;-145.41;100.00
57248;BME280;55809;46.618;10.764;2023-04-26T00:32:20;64767.38;;;-145.41;100.00
57248;BME280;55809;46.618;10.764;2023-04-26T00:34:47;64767.38;;;-145.41;100.00
57248;BME280;55809;46.618;10.764;2023-04-26T00:37:15;64767.38;;;-145.41;100.00
57248;BME280;55809;46.618;10.764;2023-04-26T00:39:42;64767.38;;;-145.41;100.00
57248;BME280;55809;46.618;10.764;2023-04-26T00:42:09;64767.38;;;-145.41;100.00
57248;BME280;55809;46.618;10.764;2023-04-26T00:44:36;64767.38;;;-145.41;100.00
57248;BME280;55809;46.618;10.764;2023-04-26T00:47:04;64767.38;;;-145.41;38.82
57248;BME280;55809;46.618;10.764;2023-04-26T00:49:31;92615.56;;;7.23;48.64
57248;BME280;55809;46.618;10.764;2023-04-26T00:52:01;92601.00;;;7.17;48.32
57248;BME280;55809;46.618;10.764;2023-04-26T00:54:29;92621.31;;;7.11;48.50
57248;BME280;55809;46.618;10.764;2023-04-26T00:56:56;92620.94;;;7.12;49.08
57248;BME280;55809;46.618;10.764;2023-04-26T00:59:25;92619.78;;;7.10;48.82
57248;BME280;55809;46.618;10.764;2023-04-26T01:01:52;92615.59;;;7.01;49.50
57248;BME280;55809;46.618;10.764;2023-04-26T01:04:19;92624.38;;;6.88;49.32
57248;BME280;55809;46.618;10.764;2023-04-26T01:06:49;92622.47;;;6.95;49.15
57248;BME280;55809;46.618;10.764;2023-04-26T01:09:17;92611.34;;;6.79;49.20
57248;BME280;55809;46.618;10.764;2023-04-26T01:11:46;92609.03;;;6.77;49.39
57248;BME280;55809;46.618;10.764;2023-04-26T01:14:13;92624.78;;;7.00;49.64
57248;BME280;55809;46.618;10.764;2023-04-26T01:16:41;92624.78;;;6.97;49.63
57248;BME280;55809;46.618;10.764;2023-04-26T01:19:11;92626.69;;;6.82;50.00
57248;BME280;55809;46.618;10.764;2023-04-26T01:21:38;92620.94;;;6.76;49.81
57248;BME280;55809;46.618;10.764;2023-04-26T01:24:08;92609.44;;;6.69;49.54
57248;BME280;55809;46.618;10.764;2023-04-26T01:26:35;92621.31;;;6.75;50.30
57248;BME280;55809;46.618;10.764;2023-04-26T01:29:12;92577.63;;;6.60;50.15
57248;BME280;55809;46.618;10.764;2023-04-26T01:31:40;92612.13;;;6.76;50.18
57248;BME280;55809;46.618;10.764;2023-04-26T01:34:07;92627.84;;;6.85;50.33
57248;BME280;55809;46.618;10.764;2023-04-26T01:36:34;92626.31;;;6.94;49.62
57248;BME280;55809;46.618;10.764;2023-04-26T01:39:01;92628.22;;;6.97;50.12
57248;BME280;55809;46.618;10.764;2023-04-26T01:41:30;92615.19;;;6.99;49.73
57248;BME280;55809;46.618;10.764;2023-04-26T01:43:58;92619.03;;;7.02;49.69
57248;BME280;55809;46.618;10.764;2023-04-26T01:46:25;92622.84;;;6.87;50.27
57248;BME280;55809;46.618;10.764;2023-04-26T01:48:51;92622.84;;;6.87;50.02
57248;BME280;55809;46.618;10.764;2023-04-26T01:51:18;92621.31;;;6.89;50.24
57248;BME280;55809;46.618;10.764;2023-04-26T01:53:45;92628.63;;;6.89;50.13
57248;BME280;55809;46.618;10.764;2023-04-26T01:56:12;92632.06;;;7.00;49.70
57248;BME280;55809;46.618;10.764;2023-04-26T01:58:41;92574.16;;;6.45;49.91
57248;BME280;55809;46.618;10.764;2023-04-26T02:01:09;92616.31;;;6.73;50.21
57248;BME280;55809;46.618;10.764;2023-04-26T02:03:35;92635.91;;;6.88;49.91
57248;BME280;55809;46.618;10.764;2023-04-26T02:06:03;92634.38;;;6.94;49.52
57248;BME280;55809;46.618;10.764;2023-04-26T02:08:30;92637.41;;;7.03;48.95
57248;BME280;55809;46.618;10.764;2023-04-26T02:10:57;92638.19;;;7.00;49.10
57248;BME280;55809;46.618;10.764;2023-04-26T02:13:24;92639.75;;;7.01;49.10
57248;BME280;55809;46.618;10.764;2023-04-26T02:15:52;92642.03;;;7.10;49.12
57248;BME280;55809;46.618;10.764;2023-04-26T02:18:19;92645.09;;;7.12;48.26
57248;BME280;55809;46.618;10.764;2023-04-26T02:20:47;92639.75;;;7.12;48.64
57248;BME280;55809;46.618;10.764;2023-04-26T02:23:13;92634.00;;;7.17;48.29
57248;BME280;55809;46.618;10.764;2023-04-26T02:25:43;92637.06;;;7.19;48.04
57248;BME280;55809;46.618;10.764;2023-04-26T02:28:10;92630.53;;;7.10;48.31
57248;BME280;55809;46.618;10.764;2023-04-26T02:30:37;92638.59;;;7.06;48.66
57248;BME280;55809;46.618;10.764;2023-04-26T02:33:06;92634.75;;;7.11;48.41
57248;BME280;55809;46.618;10.764;2023-04-26T02:35:34;92634.75;;;7.18;48.57
57248;BME280;55809;46.618;10.764;2023-04-26T02:38:01;92639.38;;;7.24;48.33
57248;BME280;55809;46.618;10.764;2023-04-26T02:40:28;92632.09;;;7.18;47.93
57248;BME280;55809;46.618;10.764;2023-04-26T02:42:55;92629.00;;;7.19;48.21
57248;BME280;55809;46.618;10.764;2023-04-26T02:45:22;92640.50;;;7.27;47.80
57248;BME280;55809;46.618;10.764;2023-04-26T02:47:49;92643.97;;;7.27;48.06
57248;BME280;55809;46.618;10.764;2023-04-26T02:50:17;92636.28;;;7.26;48.12
57248;BME280;55809;46.618;10.764;2023-04-26T02:52:44;92647.78;;;7.23;48.03
57248;BME280;55809;46.618;10.764;2023-04-26T02:55:11;92640.50;;;7.27;47.98
57248;BME280;55809;46.618;10.764;2023-04-26T02:57:38;92639.38;;;7.21;48.21
57248;BME280;55809;46.618;10.764;2023-04-26T03:00:06;92635.13;;;7.20;48.06
57248;BME280;55809;46.618;10.764;2023-04-26T03:02:33;92632.09;;;7.18;48.26
57248;BME280;55809;46.618;10.764;2023-04-26T03:05:00;92615.19;;;6.99;48.49
57248;BME280;55809;46.618;10.764;2023-04-26T03:07:29;92633.59;;;7.08;47.55
57248;BME280;55809;46.618;10.764;2023-04-26T03:09:57;92632.81;;;6.93;48.37
57248;BME280;55809;46.618;10.764;2023-04-26T03:12:24;92606.75;;;6.69;48.47
57248;BME280;55809;46.618;10.764;2023-04-26T03:14:51;92632.06;;;6.89;48.60
57248;BME280;55809;46.618;10.764;2023-04-26T03:17:18;92622.47;;;6.95;48.62
57248;BME280;55809;46.618;10.764;2023-04-26T03:19:45;92627.09;;;6.91;48.59
57248;BME280;55809;46.618;10.764;2023-04-26T03:22:12;92625.16;;;6.92;48.44
57248;BME280;55809;46.618;10.764;2023-04-26T03:24:42;92602.53;;;6.82;48.66
57248;BME280;55809;46.618;10.764;2023-04-26T03:27:09;92630.53;;;6.95;48.47
57248;BME280;55809;46.618;10.764;2023-04-26T03:29:36;92627.47;;;6.93;48.80
57248;BME280;55809;46.618;10.764;2023-04-26T03:32:04;92631.25;;;6.74;48.61
57248;BME280;55809;46.618;10.764;2023-04-26T03:34:31;92618.59;;;6.61;48.85
57248;BME280;55809;46.618;10.764;2023-04-26T03:36:58;92630.13;;;6.75;48.89
57248;BME280;55809;46.618;10.764;2023-04-26T03:39:25;92620.53;;;6.74;48.53
57248;BME280;55809;46.618;10.764;2023-04-26T03:41:53;92634.34;;;6.84;48.31
57248;BME280;55809;46.618;10.764;2023-04-26T03:44:20;92637.00;;;6.73;49.09
57248;BME280;55809;46.618;10.764;2023-04-26T03:46:47;92636.59;;;6.56;49.00
57248;BME280;55809;46.618;10.764;2023-04-26T03:49:14;92638.88;;;6.54;49.53
57248;BME280;55809;46.618;10.764;2023-04-26T03:51:41;92614.31;;;6.27;49.47
57248;BME280;55809;46.618;10.764;2023-04-26T03:54:08;92649.59;;;6.47;49.19
57248;BME280;55809;46.618;10.764;2023-04-26T03:56:35;92643.47;;;6.47;49.25
57248;BME280;55809;46.618;10.764;2023-04-26T03:59:03;92648.06;;;6.39;49.93
57248;BME280;55809;46.618;10.764;2023-04-26T04:01:30;92667.19;;;6.41;49.71
57248;BME280;55809;46.618;10.764;2023-04-26T04:03:57;92628.84;;;6.19;49.80
57248;BME280;55809;46.618;10.764;2023-04-26T04:06:24;92664.91;;;6.40;50.27
57248;BME280;55809;46.618;10.764;2023-04-26T04:08:51;92629.63;;;6.23;49.79
57248;BME280;55809;46.618;10.764;2023-04-26T04:11:18;92679.84;;;6.48;50.53
57248;BME280;55809;46.618;10.764;2023-04-26T04:13:45;92681.38;;;6.42;50.70
57248;BME280;55809;46.618;10.764;2023-04-26T04:16:13;92690.56;;;6.51;50.67
57248;BME280;55809;46.618;10.764;2023-04-26T04:18:40;92690.94;;;6.43;50.93
57248;BME280;55809;46.618;10.764;2023-04-26T04:21:07;92697.44;;;6.38;50.56
57248;BME280;55809;46.618;10.764;2023-04-26T04:23:34;92661.72;;;6.09;51.17
57248;BME280;55809;46.618;10.764;2023-04-26T04:26:01;92649.81;;;5.99;50.65
57248;BME280;55809;46.618;10.764;2023-04-26T04:28:28;92685.09;;;6.16;50.85
57248;BME280;55809;46.618;10.764;2023-04-26T04:30:56;92694.34;;;6.32;50.25
57248;BME280;55809;46.618;10.764;2023-04-26T04:33:26;92677.81;;;6.16;50.27
57248;BME280;55809;46.618;10.764;2023-04-26T04:35:54;92727.31;;;6.40;50.98
57248;BME280;55809;46.618;10.764;2023-04-26T04:38:21;92720.44;;;6.46;50.71
57248;BME280;55809;46.618;10.764;2023-04-26T04:40:48;92732.75;;;6.58;50.11
57248;BME280;55809;46.618;10.764;2023-04-26T04:43:16;92726.28;;;6.66;50.00
57248;BME280;55809;46.618;10.764;2023-04-26T04:45:42;92714.75;;;6.58;49.94
57248;BME280;55809;46.618;10.764;2023-04-26T04:48:10;92736.66;;;6.71;49.67
57248;BME280;55809;46.618;10.764;2023-04-26T04:50:38;92741.28;;;6.89;49.48
57248;BME280;55809;46.618;10.764;2023-04-26T04:53:06;92709.09;;;6.96;48.86
57248;BME280;55809;46.618;10.764;2023-04-26T04:55:34;92739.47;;;7.75;48.09
57248;BME280;55809;46.618;10.764;2023-04-26T04:58:02;92746.38;;;7.72;47.57
57248;BME280;55809;46.618;10.764;2023-04-26T05:00:29;92750.97;;;7.75;48.02
57248;BME280;55809;46.618;10.764;2023-04-26T05:02:57;92754.44;;;7.87;47.50
57248;BME280;55809;46.618;10.764;2023-04-26T05:05:24;92757.50;;;7.99;48.18
57248;BME280;55809;46.618;10.764;2023-04-26T05:07:52;92749.44;;;7.99;47.39
57248;BME280;55809;46.618;10.764;2023-04-26T05:10:19;92729.47;;;7.93;46.70
57248;BME280;55809;46.618;10.764;2023-04-26T05:12:46;92759.75;;;8.19;46.85
57248;BME280;55809;46.618;10.764;2023-04-26T05:15:13;92731.00;;;8.02;47.25
57248;BME280;55809;46.618;10.764;2023-04-26T05:17:40;92760.88;;;8.29;46.76
57248;BME280;55809;46.618;10.764;2023-04-26T05:20:08;92757.06;;;8.22;46.67
57248;BME280;55809;46.618;10.764;2023-04-26T05:22:35;92747.88;;;8.20;46.73
57248;BME280;55809;46.618;10.764;2023-04-26T05:25:07;92739.41;;;8.14;46.99
57248;BME280;55809;46.618;10.764;2023-04-26T05:27:34;92752.84;;;8.36;46.54
57248;BME280;55809;46.618;10.764;2023-04-26T05:30:02;92734.03;;;8.39;45.68
57248;BME280;55809;46.618;10.764;2023-04-26T05:32:29;92766.59;;;8.63;45.86
57248;BME280;55809;46.618;10.764;2023-04-26T05:34:56;92732.44;;;8.56;44.97
57248;BME280;55809;46.618;10.764;2023-04-26T05:37:26;92766.06;;;9.04;44.28
57248;BME280;55809;46.618;10.764;2023-04-26T05:39:53;92767.16;;;9.13;44.01
57248;BME280;55809;46.618;10.764;2023-04-26T05:42:21;92724.94;;;9.00;43.98
57248;BME280;55809;46.618;10.764;2023-04-26T05:44:48;92776.19;;;9.52;44.23
57248;BME280;55809;46.618;10.764;2023-04-26T05:47:15;92769.84;;;9.76;43.66
57248;BME280;55809;46.618;10.764;2023-04-26T05:49:42;92775.72;;;10.13;43.09
57248;BME280;55809;46.618;10.764;2023-04-26T05:52:09;92764.66;;;10.45;42.21
57248;BME280;55809;46.618;10.764;2023-04-26T05:54:36;92723.66;;;10.57;41.35
57248;BME280;55809;46.618;10.764;2023-04-26T05:57:03;92758.44;;;11.16;40.14
57248;BME280;55809;46.618;10.764;2023-04-26T05:59:34;92759.59;;;11.46;40.34
57248;BME280;55809;46.618;10.764;2023-04-26T06:02:01;92761.78;;;11.82;38.46
57248;BME280;55809;46.618;10.764;2023-04-26T06:04:29;92767.47;;;12.14;38.12
57248;BME280;55809;46.618;10.764;2023-04-26T06:06:56;92763.34;;;12.30;38.13
57248;BME280;55809;46.618;10.764;2023-04-26T06:09:24;92741.31;;;12.51;37.61
57248;BME280;55809;46.618;10.764;2023-04-26T06:11:51;92756.25;;;12.99;37.33
57248;BME280;55809;46.618;10.764;2023-04-26T06:14:18;92767.34;;;13.45;35.49
57248;BME280;55809;46.618;10.764;2023-04-26T06:16:47;92754.75;;;13.54;36.33
57248;BME280;55809;46.618;10.764;2023-04-26T06:19:14;92753.66;;;13.68;36.50
57248;BME280;55809;46.618;10.764;2023-04-26T06:21:41;92764.22;;;13.99;35.41
57248;BME280;55809;46.618;10.764;2023-04-26T06:24:08;92750.69;;;14.28;34.48
57248;BME280;55809;46.618;10.764;2023-04-26T06:26:35;92752.91;;;14.49;34.16
57248;BME280;55809;46.618;10.764;2023-04-26T06:29:02;92756.31;;;14.53;34.38
57248;BME280;55809;46.618;10.764;2023-04-26T06:31:29;92755.84;;;14.71;34.11
57248;BME280;55809;46.618;10.764;2023-04-26T06:33:57;92744.50;;;14.89;34.19
57248;BME280;55809;46.618;10.764;2023-04-26T06:36:24;92749.56;;;15.16;33.71
57248;BME280;55809;46.618;10.764;2023-04-26T06:38:52;92744.66;;;15.53;32.29
57248;BME280;55809;46.618;10.764;2023-04-26T06:41:19;92702.75;;;15.38;33.15
57248;BME280;55809;46.618;10.764;2023-04-26T06:43:47;92742.16;;;15.97;32.58
57248;BME280;55809;46.618;10.764;2023-04-26T06:46:14;92741.84;;;15.95;32.74
57248;BME280;55809;46.618;10.764;2023-04-26T06:48:41;92736.25;;;16.11;31.02
57248;BME280;55809;46.618;10.764;2023-04-26T06:51:10;92710.34;;;16.07;32.75
57248;BME280;55809;46.618;10.764;2023-04-26T06:53:37;92700.19;;;16.20;31.73
57248;BME280;55809;46.618;10.764;2023-04-26T06:56:06;92736.84;;;16.41;30.43
57248;BME280;55809;46.618;10.764;2023-04-26T06:58:33;92695.66;;;16.04;30.03
57248;BME280;55809;46.618;10.764;2023-04-26T07:01:00;92672.31;;;16.29;29.34
57248;BME280;55809;46.618;10.764;2023-04-26T07:03:28;92723.72;;;16.61;28.63
57248;BME280;55809;46.618;10.764;2023-04-26T07:05:55;92717.63;;;16.92;27.84
57248;BME280;55809;46.618;10.764;2023-04-26T07:08:23;92658.94;;;16.78;26.53
57248;BME280;55809;46.618;10.764;2023-04-26T07:10:50;92704.97;;;16.98;26.62
57248;BME280;55809;46.618;10.764;2023-04-26T07:13:17;92706.09;;;16.88;26.61
57248;BME280;55809;46.618;10.764;2023-04-26T07:15:44;92708.06;;;17.09;100.00
57248;BME280;55809;46.618;10.764;2023-04-26T07:18:11;64767.38;;;-145.41;100.00
57248;BME280;55809;46.618;10.764;2023-04-26T07:20:37;92701.72;;;17.44;26.11
57248;BME280;55809;46.618;10.764;2023-04-26T07:23:04;92699.66;;;17.26;25.89
57248;BME280;55809;46.618;10.764;2023-04-26T07:25:33;92701.59;;;17.47;26.48
57248;BME280;55809;46.618;10.764;2023-04-26T07:27:59;92695.59;;;17.62;26.04
57248;BME280;55809;46.618;10.764;2023-04-26T07:30:27;92698.50;;;17.05;25.44
57248;BME280;55809;46.618;10.764;2023-04-26T07:32:54;92690.94;;;17.40;25.38
57248;BME280;55809;46.618;10.764;2023-04-26T07:35:21;92681.06;;;17.65;25.10
57248;BME280;55809;46.618;10.764;2023-04-26T07:37:47;92691.50;;;17.66;24.49
57248;BME280;55809;46.618;10.764;2023-04-26T07:40:15;92691.31;;;17.92;24.51
57248;BME280;55809;46.618;10.764;2023-04-26T07:42:44;92691.00;;;17.80;24.11
57248;BME280;55809;46.618;10.764;2023-04-26T07:45:11;92685.81;;;18.23;24.48
57248;BME280;55809;46.618;10.764;2023-04-26T07:47:38;92688.25;;;18.30;23.49
57248;BME280;55809;46.618;10.764;2023-04-26T07:50:07;92685.34;;;18.34;23.61
57248;BME280;55809;46.618;10.764;2023-04-26T07:52:34;92681.09;;;18.33;23.36
57248;BME280;55809;46.618;10.764;2023-04-26T07:55:01;92666.38;;;18.39;23.72
57248;BME280;55809;46.618;10.764;2023-04-26T07:57:28;92676.69;;;18.35;23.94
57248;BME280;55809;46.618;10.764;2023-04-26T07:59:56;92679.03;;;18.73;23.13
57248;BME280;55809;46.618;10.764;2023-04-26T08:02:24;92647.72;;;18.47;23.85
57248;BME280;55809;46.618;10.764;2023-04-26T08:04:51;92631.78;;;18.36;22.89
57248;BME280;55809;46.618;10.764;2023-04-26T08:07:19;92649.81;;;18.24;23.30
57248;BME280;55809;46.618;10.764;2023-04-26T08:09:46;92666.19;;;18.15;23.49
57248;BME280;55809;46.618;10.764;2023-04-26T08:12:13;92645.38;;;17.99;23.77
57248;BME280;55809;46.618;10.764;2023-04-26T08:14:40;92643.28;;;18.31;24.08
57248;BME280;55809;46.618;10.764;2023-04-26T08:17:09;92629.66;;;18.49;23.29
57248;BME280;55809;46.618;10.764;2023-04-26T08:19:36;92663.97;;;18.78;23.40
57248;BME280;55809;46.618;10.764;2023-04-26T08:22:03;92660.63;;;18.83;23.30
57248;BME280;55809;46.618;10.764;2023-04-26T08:24:31;92658.66;;;18.84;23.16
57248;BME280;55809;46.618;10.764;2023-04-26T08:26:58;92653.28;;;19.08;23.14
57248;BME280;55809;46.618;10.764;2023-04-26T08:29:25;92655.16;;;19.44;22.95
57248;BME280;55809;46.618;10.764;2023-04-26T08:31:53;92633.59;;;19.37;22.51
57248;BME280;55809;46.618;10.764;2023-04-26T08:34:21;92657.50;;;19.27;22.64
57248;BME280;55809;46.618;10.764;2023-04-26T08:36:48;92649.81;;;19.07;21.46
57248;BME280;55809;46.618;10.764;2023-04-26T08:39:15;92644.66;;;19.09;22.18
57248;BME280;55809;46.618;10.764;2023-04-26T08:41:44;92612.25;;;19.08;21.69
57248;BME280;55809;46.618;10.764;2023-04-26T08:44:11;92618.97;;;18.97;22.29
57248;BME280;55809;46.618;10.764;2023-04-26T08:46:45;92644.31;;;19.16;22.98
57248;BME280;55809;46.618;10.764;2023-04-26T08:49:34;92640.91;;;19.40;22.45
57248;BME280;55809;46.618;10.764;2023-04-26T08:52:08;92619.16;;;19.45;22.23
57248;BME280;55809;46.618;10.764;2023-04-26T08:54:36;92651.31;;;19.69;22.63
57248;BME280;55809;46.618;10.764;2023-04-26T08:57:03;92643.41;;;19.71;22.56
57248;BME280;55809;46.618;10.764;2023-04-26T08:59:33;92619.38;;;19.57;22.57
57248;BME280;55809;46.618;10.764;2023-04-26T09:02:05;92639.44;;;19.63;20.88
57248;BME280;55809;46.618;10.764;2023-04-26T09:04:35;92627.63;;;19.90;21.79
57248;BME280;55809;46.618;10.764;2023-04-26T09:07:03;92602.47;;;19.67;21.37
57248;BME280;55809;46.618;10.764;2023-04-26T09:09:34;92634.47;;;19.95;21.92
57248;BME280;55809;46.618;10.764;2023-04-26T09:12:02;92635.50;;;20.21;22.08
57248;BME280;55809;46.618;10.764;2023-04-26T09:14:29;92632.81;;;20.36;21.40
57248;BME280;55809;46.618;10.764;2023-04-26T09:16:56;92630.19;;;20.42;21.12
57248;BME280;55809;46.618;10.764;2023-04-26T09:19:46;92628.75;;;20.46;21.03
57248;BME280;55809;46.618;10.764;2023-04-26T09:22:13;92615.75;;;20.17;21.42
57248;BME280;55809;46.618;10.764;2023-04-26T09:24:47;92614.34;;;20.22;21.26
57248;BME280;55809;46.618;10.764;2023-04-26T09:27:15;92620.78;;;20.33;21.36
57248;BME280;55809;46.618;10.764;2023-04-26T09:29:56;92615.31;;;20.33;21.36
57248;BME280;55809;46.618;10.764;2023-04-26T09:32:25;92617.50;;;20.05;21.08
57248;BME280;55809;46.618;10.764;2023-04-26T09:34:55;92605.03;;;20.04;21.50
57248;BME280;55809;46.618;10.764;2023-04-26T09:37:24;92600.03;;;19.94;20.63
57248;BME280;55809;46.618;10.764;2023-04-26T09:39:53;92602.31;;;20.19;21.00
57248;BME280;55809;46.618;10.764;2023-04-26T09:42:33;92595.34;;;19.94;21.30
57248;BME280;55809;46.618;10.764;2023-04-26T09:45:05;92599.78;;;19.91;21.06
57248;BME280;55809;46.618;10.764;2023-04-26T09:47:37;92599.03;;;19.91;20.85
57248;BME280;55809;46.618;10.764;2023-04-26T09:50:34;92594.78;;;19.81;20.93
57248;BME280;55809;46.618;10.764;2023-04-26T09:53:30;92595.63;;;19.63;21.80
57248;BME280;55809;46.618;10.764;2023-04-26T09:56:09;92587.94;;;19.85;21.62
57248;BME280;55809;46.618;10.764;2023-04-26T09:58:39;92582.84;;;19.93;21.53
57248;BME280;55809;46.618;10.764;2023-04-26T10:01:36;92582.78;;;20.26;21.79
57248;BME280;55809;46.618;10.764;2023-04-26T10:04:06;92581.81;;;20.14;20.81
57248;BME280;55809;46.618;10.764;2023-04-26T10:06:34;92579.16;;;20.20;21.05
57248;BME280;55809;46.618;10.764;2023-04-26T10:09:01;92576.09;;;20.27;21.21
57248;BME280;55809;46.618;10.764;2023-04-26T10:11:30;92567.50;;;20.34;20.99
57248;BME280;55809;46.618;10.764;2023-04-26T10:14:01;92563.44;;;20.45;21.60
57248;BME280;55809;46.618;10.764;2023-04-26T10:16:32;92537.28;;;20.05;20.97
57248;BME280;55809;46.618;10.764;2023-04-26T10:19:10;92512.44;;;19.60;20.18
57248;BME280;55809;46.618;10.764;2023-04-26T10:21:40;92523.34;;;19.94;20.50
57248;BME280;55809;46.618;10.764;2023-04-26T10:24:15;92452.41;;;19.09;20.83
57248;BME280;55809;46.618;10.764;2023-04-26T10:26:49;92509.75;;;19.84;22.46
57248;BME280;55809;46.618;10.764;2023-04-26T10:29:19;92547.00;;;20.06;22.16
57248;BME280;55809;46.618;10.764;2023-04-26T10:32:08;92472.47;;;20.02;21.01
57248;BME280;55809;46.618;10.764;2023-04-26T10:35:07;92499.94;;;19.92;20.35
57248;BME280;55809;46.618;10.764;2023-04-26T10:38:09;92489.53;;;19.82;20.75
57248;BME280;55809;46.618;10.764;2023-04-26T10:40:39;92513.06;;;20.27;21.09
57248;BME280;55809;46.618;10.764;2023-04-26T10:43:28;92511.38;;;20.45;19.40
57248;BME280;55809;46.618;10.764;2023-04-26T10:45:56;92424.34;;;19.71;21.08
57248;BME280;55809;46.618;10.764;2023-04-26T10:48:28;92442.69;;;19.95;20.63
57248;BME280;55809;46.618;10.764;2023-04-26T10:51:07;92448.44;;;19.82;20.19
57248;BME280;55809;46.618;10.764;2023-04-26T10:53:59;92459.28;;;19.76;20.41
57248;BME280;55809;46.618;10.764;2023-04-26T10:56:50;92496.63;;;19.88;20.78
57248;BME280;55809;46.618;10.764;2023-04-26T10:59:19;92458.97;;;19.98;20.23
57248;BME280;55809;46.618;10.764;2023-04-26T11:01:46;92460.84;;;20.07;20.39
57248;BME280;55809;46.618;10.764;2023-04-26T11:04:13;92459.72;;;19.99;19.90
57248;BME280;55809;46.618;10.764;2023-04-26T11:06:47;92459.09;;;19.80;20.08
57248;BME280;55809;46.618;10.764;2023-04-26T11:09:36;92427.81;;;19.48;20.38
57248;BME280;55809;46.618;10.764;2023-04-26T11:12:05;92454.16;;;19.69;20.58
57248;BME280;55809;46.618;10.764;2023-04-26T11:14:32;92418.91;;;19.62;21.14
57248;BME280;55809;46.618;10.764;2023-04-26T11:17:02;92473.53;;;20.04;19.98
57248;BME280;55809;46.618;10.764;2023-04-26T11:19:30;92390.19;;;19.18;19.59
57248;BME280;55809;46.618;10.764;2023-04-26T11:21:57;92421.31;;;19.21;19.52
57248;BME280;55809;46.618;10.764;2023-04-26T11:24:25;92438.53;;;19.60;20.17
57248;BME280;55809;46.618;10.764;2023-04-26T11:26:57;92448.81;;;19.75;20.41
57248;BME280;55809;46.618;10.764;2023-04-26T11:29:25;92438.00;;;19.47;19.86
57248;BME280;55809;46.618;10.764;2023-04-26T11:31:53;92373.81;;;19.09;20.80
57248;BME280;55809;46.618;10.764;2023-04-26T11:34:22;92405.59;;;19.31;21.30
57248;BME280;55809;46.618;10.764;2023-04-26T11:36:52;92457.72;;;19.84;20.44
57248;BME280;55809;46.618;10.764;2023-04-26T11:39:20;92374.34;;;19.23;20.71
57248;BME280;55809;46.618;10.764;2023-04-26T11:41:49;92386.78;;;19.24;20.49
57248;BME280;55809;46.618;10.764;2023-04-26T11:44:20;92367.66;;;18.66;21.10
57248;BME280;55809;46.618;10.764;2023-04-26T11:46:48;92400.28;;;18.70;20.65
57248;BME280;55809;46.618;10.764;2023-04-26T11:49:16;92416.97;;;18.81;22.06
57248;BME280;55809;46.618;10.764;2023-04-26T11:51:47;92453.97;;;18.91;20.72
57248;BME280;55809;46.618;10.764;2023-04-26T11:54:26;92454.22;;;18.69;20.79
57248;BME280;55809;46.618;10.764;2023-04-26T11:56:55;92446.22;;;18.47;19.26
57248;BME280;55809;46.618;10.764;2023-04-26T11:59:26;92445.16;;;18.45;21.12
57248;BME280;55809;46.618;10.764;2023-04-26T12:01:58;92444.84;;;18.52;21.86
57248;BME280;55809;46.618;10.764;2023-04-26T12:04:33;92449.44;;;18.46;21.40
57248;BME280;55809;46.618;10.764;2023-04-26T12:07:04;92449.28;;;18.40;21.25
57248;BME280;55809;46.618;10.764;2023-04-26T12:09:32;92447.66;;;18.24;21.03
57248;BME280;55809;46.618;10.764;2023-04-26T12:12:02;92444.19;;;18.15;20.24
57248;BME280;55809;46.618;10.764;2023-04-26T12:14:36;92444.34;;;18.11;21.85
57248;BME280;55809;46.618;10.764;2023-04-26T12:17:04;92442.84;;;18.10;20.67
57248;BME280;55809;46.618;10.764;2023-04-26T12:19:32;92441.94;;;18.13;21.93
57248;BME280;55809;46.618;10.764;2023-04-26T12:21:59;92445.09;;;18.12;22.26
57248;BME280;55809;46.618;10.764;2023-04-26T12:24:28;92440.56;;;18.09;20.85
57248;BME280;55809;46.618;10.764;2023-04-26T12:26:58;92440.28;;;18.07;19.96
57248;BME280;55809;46.618;10.764;2023-04-26T12:29:27;92425.13;;;17.87;20.91
57248;BME280;55809;46.618;10.764;2023-04-26T12:31:58;92436.94;;;17.93;21.06
57248;BME280;55809;46.618;10.764;2023-04-26T12:34:35;92440.28;;;17.88;21.34
57248;BME280;55809;46.618;10.764;2023-04-26T12:37:02;92430.88;;;17.89;21.56
57248;BME280;55809;46.618;10.764;2023-04-26T12:39:30;92418.44;;;17.79;20.40
57248;BME280;55809;46.618;10.764;2023-04-26T12:42:00;92424.38;;;17.77;19.80
57248;BME280;55809;46.618;10.764;2023-04-26T12:44:29;92413.44;;;17.77;21.23
57248;BME280;55809;46.618;10.764;2023-04-26T12:47:10;92411.47;;;17.78;20.29
57248;BME280;55809;46.618;10.764;2023-04-26T12:49:37;92410.09;;;17.83;22.02
57248;BME280;55809;46.618;10.764;2023-04-26T12:52:04;92409.34;;;17.91;21.70
57248;BME280;55809;46.618;10.764;2023-04-26T12:54:34;92407.66;;;17.94;21.01
57248;BME280;55809;46.618;10.764;2023-04-26T12:57:20;92397.03;;;17.87;19.98
57248;BME280;55809;46.618;10.764;2023-04-26T12:59:47;92401.75;;;17.86;20.81
57248;BME280;55809;46.618;10.764;2023-04-26T13:02:19;92393.72;;;17.92;20.66